createdAt,value
2019-01-23T00:00:39.940Z,0
2019-01-23T00:01:39.689Z,0
2019-01-23T00:02:39.957Z,0
2019-01-23T00:03:39.719Z,0
2019-01-23T00:04:39.730Z,0
2019-01-23T00:05:40.005Z,0
2019-01-23T00:06:39.502Z,0
2019-01-23T00:07:39.799Z,0
2019-01-23T00:08:39.803Z,0
2019-01-23T00:09:40.076Z,0
2019-01-23T00:10:39.818Z,0
2019-01-23T00:11:40.078Z,0
2019-01-23T00:12:39.852Z,0
2019-01-23T00:13:39.607Z,0
2019-01-23T00:14:39.883Z,0
2019-01-23T00:15:40.166Z,0
2019-01-23T00:16:39.958Z,0
2019-01-23T00:17:39.645Z,0
2019-01-23T00:18:39.690Z,0
2019-01-23T00:19:39.410Z,0
2019-01-23T00:20:39.692Z,0
2019-01-23T00:21:39.966Z,0
2019-01-23T00:22:40.227Z,0
2019-01-23T00:23:39.474Z,0
2019-01-23T00:24:39.497Z,0
2019-01-23T00:25:39.495Z,0
2019-01-23T00:26:39.508Z,0
2019-01-23T00:27:40.048Z,0
2019-01-23T00:28:44.536Z,0
2019-01-23T00:29:40.073Z,0
2019-01-23T00:30:39.814Z,0
2019-01-23T00:31:40.369Z,0
2019-01-23T00:32:40.114Z,0
2019-01-23T00:33:39.909Z,0
2019-01-23T00:34:39.619Z,0
2019-01-23T00:35:40.154Z,0
2019-01-23T00:36:40.168Z,0
2019-01-23T00:37:39.937Z,0
2019-01-23T00:38:39.935Z,0
2019-01-23T00:39:39.946Z,0
2019-01-23T00:40:39.713Z,0
2019-01-23T00:41:39.983Z,0
2019-01-23T00:42:40.256Z,0
2019-01-23T00:43:40.260Z,0
2019-01-23T00:44:40.526Z,0
2019-01-23T00:45:40.536Z,0
2019-01-23T00:46:40.319Z,0
2019-01-23T00:47:40.584Z,0
2019-01-23T00:48:40.588Z,0
2019-01-23T00:49:40.335Z,0
2019-01-23T00:50:40.105Z,0
2019-01-23T00:51:40.369Z,0
2019-01-23T00:52:40.388Z,0
2019-01-23T00:53:40.138Z,0
2019-01-23T00:54:40.928Z,0
2019-01-23T00:55:40.414Z,0
2019-01-23T00:56:40.344Z,0
2019-01-23T00:57:39.939Z,0
2019-01-23T00:58:40.730Z,0
2019-01-23T00:59:39.948Z,0
2019-01-23T01:00:40.230Z,0
2019-01-23T01:01:41.016Z,0
2019-01-23T01:02:40.518Z,0
2019-01-23T01:03:40.520Z,0
2019-01-23T01:04:40.032Z,0
2019-01-23T01:05:40.818Z,0
2019-01-23T01:06:40.577Z,0
2019-01-23T01:07:40.061Z,0
2019-01-23T01:08:40.599Z,0
2019-01-23T01:09:40.372Z,0
2019-01-23T01:10:40.630Z,0
2019-01-23T01:11:40.896Z,0
2019-01-23T01:12:40.931Z,0
2019-01-23T01:13:40.415Z,0
2019-01-23T01:14:40.426Z,0
2019-01-23T01:15:40.172Z,0
2019-01-23T01:16:40.694Z,0
2019-01-23T01:17:40.461Z,0
2019-01-23T01:18:40.988Z,0
2019-01-23T01:19:40.487Z,0
2019-01-23T01:20:40.522Z,0
2019-01-23T01:21:40.513Z,0
2019-01-23T01:22:40.262Z,0
2019-01-23T01:23:40.543Z,0
2019-01-23T01:24:40.553Z,0
2019-01-23T01:25:40.818Z,0
2019-01-23T01:26:41.354Z,0
2019-01-23T01:27:40.850Z,0
2019-01-23T01:28:40.869Z,0
2019-01-23T01:29:40.670Z,0
2019-01-23T01:30:40.891Z,0
2019-01-23T01:31:40.651Z,0
2019-01-23T01:32:40.649Z,0
2019-01-23T01:33:43.174Z,0
2019-01-23T01:34:41.202Z,0
2019-01-23T01:35:40.955Z,0
2019-01-23T01:36:40.870Z,0
2019-01-23T01:37:41.249Z,0
2019-01-23T01:38:41.006Z,0
2019-01-23T01:39:41.018Z,0
2019-01-23T01:40:40.774Z,0
2019-01-23T01:41:40.773Z,0
2019-01-23T01:42:40.789Z,0
2019-01-23T01:43:41.064Z,0
2019-01-23T01:44:40.823Z,0
2019-01-23T01:45:40.593Z,0
2019-01-23T01:46:40.856Z,0
2019-01-23T01:47:40.605Z,0
2019-01-23T01:48:41.152Z,0
2019-01-23T01:49:41.149Z,0
2019-01-23T01:50:41.163Z,0
2019-01-23T01:51:41.433Z,0
2019-01-23T01:52:40.925Z,0
2019-01-23T01:53:40.692Z,0
2019-01-23T01:54:41.226Z,0
2019-01-23T01:55:40.969Z,0
2019-01-23T01:56:41.237Z,0
2019-01-23T01:57:41.252Z,0
2019-01-23T01:58:41.272Z,0
2019-01-23T01:59:41.014Z,0
2019-01-23T02:00:40.761Z,0
2019-01-23T02:01:41.049Z,0
2019-01-23T02:02:41.582Z,0
2019-01-23T02:03:41.657Z,0
2019-01-23T02:04:41.621Z,0
2019-01-23T02:05:41.363Z,0
2019-01-23T02:06:40.855Z,0
2019-01-23T02:07:40.872Z,0
2019-01-23T02:08:41.665Z,0
2019-01-23T02:09:47.720Z,0
2019-01-23T02:10:41.669Z,0
2019-01-23T02:11:41.185Z,0
2019-01-23T02:12:40.919Z,0
2019-01-23T02:13:41.475Z,0
2019-01-23T02:14:40.956Z,0
2019-01-23T02:15:41.227Z,0
2019-01-23T02:16:41.505Z,0
2019-01-23T02:17:41.514Z,0
2019-01-23T02:18:41.258Z,0
2019-01-23T02:19:41.548Z,0
2019-01-23T02:20:41.552Z,0
2019-01-23T02:21:41.313Z,0
2019-01-23T02:22:41.841Z,0
2019-01-23T02:23:41.331Z,0
2019-01-23T02:24:41.864Z,0
2019-01-23T02:25:41.375Z,0
2019-01-23T02:26:41.662Z,0
2019-01-23T02:27:41.672Z,0
2019-01-23T02:28:41.919Z,0
2019-01-23T02:29:41.156Z,0
2019-01-23T02:30:41.707Z,0
2019-01-23T02:31:41.984Z,0
2019-01-23T02:32:41.722Z,0
2019-01-23T02:33:41.753Z,0
2019-01-23T02:34:41.503Z,0
2019-01-23T02:35:41.518Z,0
2019-01-23T02:36:41.529Z,0
2019-01-23T02:37:41.781Z,0
2019-01-23T02:38:42.046Z,0
2019-01-23T02:39:41.841Z,0
2019-01-23T02:40:42.083Z,0
2019-01-23T02:41:41.575Z,0
2019-01-23T02:42:42.117Z,0
2019-01-23T02:43:41.350Z,0
2019-01-23T02:44:42.135Z,0
2019-01-23T02:45:41.672Z,0
2019-01-23T02:46:42.171Z,0
2019-01-23T02:47:41.966Z,0
2019-01-23T02:48:41.682Z,0
2019-01-23T02:49:41.938Z,0
2019-01-23T02:50:42.199Z,0
2019-01-23T02:51:42.019Z,0
2019-01-23T02:52:41.721Z,0
2019-01-23T02:53:42.001Z,0
2019-01-23T02:54:41.739Z,0
2019-01-23T02:55:42.301Z,0
2019-01-23T02:56:41.792Z,0
2019-01-23T02:57:42.350Z,0
2019-01-23T02:58:41.797Z,0
2019-01-23T02:59:41.832Z,0
2019-01-23T03:00:42.100Z,0
2019-01-23T03:01:42.102Z,0
2019-01-23T03:02:42.379Z,0
2019-01-23T03:03:42.150Z,0
2019-01-23T03:04:42.138Z,0
2019-01-23T03:05:42.172Z,0
2019-01-23T03:06:41.898Z,0
2019-01-23T03:07:42.433Z,0
2019-01-23T03:08:42.730Z,0
2019-01-23T03:09:42.471Z,0
2019-01-23T03:10:42.233Z,0
2019-01-23T03:11:42.226Z,0
2019-01-23T03:12:42.266Z,0
2019-01-23T03:13:42.255Z,0
2019-01-23T03:14:42.287Z,0
2019-01-23T03:15:42.289Z,0
2019-01-23T03:16:42.590Z,0
2019-01-23T03:17:42.338Z,0
2019-01-23T03:18:41.825Z,0
2019-01-23T03:19:41.837Z,0
2019-01-23T03:20:42.093Z,0
2019-01-23T03:21:42.368Z,0
2019-01-23T03:22:42.650Z,0
2019-01-23T03:23:42.421Z,0
2019-01-23T03:24:41.921Z,0
2019-01-23T03:25:42.210Z,0
2019-01-23T03:26:41.916Z,0
2019-01-23T03:27:42.454Z,0
2019-01-23T03:28:42.480Z,0
2019-01-23T03:29:42.477Z,0
2019-01-23T03:30:42.281Z,0
2019-01-23T03:31:42.278Z,0
2019-01-23T03:32:42.283Z,0
2019-01-23T03:33:43.069Z,0
2019-01-23T03:34:42.804Z,0
2019-01-23T03:35:42.577Z,0
2019-01-23T03:36:42.562Z,0
2019-01-23T03:37:42.585Z,0
2019-01-23T03:38:42.591Z,0
2019-01-23T03:39:42.617Z,0
2019-01-23T03:40:42.361Z,0
2019-01-23T03:41:42.390Z,0
2019-01-23T03:42:42.914Z,0
2019-01-23T03:43:42.132Z,0
2019-01-23T03:44:42.400Z,0
2019-01-23T03:45:42.699Z,0
2019-01-23T03:46:42.704Z,0
2019-01-23T03:47:42.757Z,0
2019-01-23T03:48:42.296Z,0
2019-01-23T03:49:42.751Z,0
2019-01-23T03:50:42.762Z,0
2019-01-23T03:51:42.819Z,0
2019-01-23T03:52:42.539Z,0
2019-01-23T03:53:42.540Z,0
2019-01-23T03:54:43.052Z,0
2019-01-23T03:55:43.077Z,0
2019-01-23T03:56:42.838Z,0
2019-01-23T03:57:43.106Z,0
2019-01-23T03:58:42.595Z,0
2019-01-23T03:59:43.134Z,0
2019-01-23T04:00:42.624Z,0
2019-01-23T04:01:43.427Z,0
2019-01-23T04:02:43.193Z,0
2019-01-23T04:03:42.675Z,0
2019-01-23T04:04:42.704Z,0
2019-01-23T04:05:43.506Z,0
2019-01-23T04:06:42.971Z,0
2019-01-23T04:07:43.523Z,0
2019-01-23T04:08:43.249Z,0
2019-01-23T04:09:42.747Z,0
2019-01-23T04:10:43.049Z,0
2019-01-23T04:11:42.769Z,0
2019-01-23T04:12:42.533Z,0
2019-01-23T04:13:43.306Z,0
2019-01-23T04:14:42.819Z,0
2019-01-23T04:15:43.612Z,0
2019-01-23T04:16:43.103Z,0
2019-01-23T04:17:43.410Z,0
2019-01-23T04:18:42.855Z,0
2019-01-23T04:19:43.136Z,0
2019-01-23T04:20:43.403Z,0
2019-01-23T04:21:42.921Z,0
2019-01-23T04:22:43.477Z,0
2019-01-23T04:23:42.680Z,0
2019-01-23T04:24:43.221Z,0
2019-01-23T04:25:43.786Z,0
2019-01-23T04:26:43.496Z,0
2019-01-23T04:27:43.251Z,0
2019-01-23T04:28:43.263Z,0
2019-01-23T04:29:48.614Z,0
2019-01-23T04:30:43.026Z,0
2019-01-23T04:31:43.561Z,0
2019-01-23T04:32:43.072Z,0
2019-01-23T04:33:42.823Z,0
2019-01-23T04:34:43.082Z,0
2019-01-23T04:35:43.364Z,0
2019-01-23T04:36:43.376Z,0
2019-01-23T04:37:43.133Z,0
2019-01-23T04:38:43.658Z,0
2019-01-23T04:39:43.700Z,0
2019-01-23T04:40:43.685Z,0
2019-01-23T04:41:43.706Z,0
2019-01-23T04:42:43.199Z,0
2019-01-23T04:43:42.938Z,0
2019-01-23T04:44:43.207Z,0
2019-01-23T04:45:43.503Z,0
2019-01-23T04:46:43.792Z,0
2019-01-23T04:47:43.799Z,0
2019-01-23T04:48:43.533Z,0
2019-01-23T04:49:43.799Z,0
2019-01-23T04:50:43.284Z,0
2019-01-23T04:51:43.580Z,0
2019-01-23T04:52:43.583Z,0
2019-01-23T04:53:43.608Z,0
2019-01-23T04:54:43.347Z,0
2019-01-23T04:55:43.393Z,0
2019-01-23T04:56:43.672Z,0
2019-01-23T04:57:43.646Z,0
2019-01-23T04:58:43.659Z,0
2019-01-23T04:59:49.045Z,0
2019-01-23T05:00:43.982Z,0
2019-01-23T05:01:43.956Z,0
2019-01-23T05:02:43.481Z,0
2019-01-23T05:03:43.727Z,0
2019-01-23T05:04:43.740Z,0
2019-01-23T05:05:44.007Z,0
2019-01-23T05:06:43.508Z,0
2019-01-23T05:07:43.782Z,0
2019-01-23T05:08:43.808Z,0
2019-01-23T05:09:43.304Z,0
2019-01-23T05:10:43.827Z,0
2019-01-23T05:11:44.137Z,0
2019-01-23T05:12:43.596Z,0
2019-01-23T05:13:43.865Z,0
2019-01-23T05:14:45.914Z,0
2019-01-23T05:15:44.175Z,0
2019-01-23T05:16:43.651Z,0
2019-01-23T05:17:43.426Z,0
2019-01-23T05:18:43.950Z,0
2019-01-23T05:19:44.463Z,0
2019-01-23T05:20:44.224Z,0
2019-01-23T05:21:43.709Z,0
2019-01-23T05:22:43.714Z,0
2019-01-23T05:23:43.482Z,0
2019-01-23T05:24:44.016Z,0
2019-01-23T05:25:43.756Z,0
2019-01-23T05:26:43.772Z,0
2019-01-23T05:27:44.336Z,0
2019-01-23T05:28:44.066Z,0
2019-01-23T05:29:44.341Z,0
2019-01-23T05:30:43.814Z,0
2019-01-23T05:31:43.600Z,0
2019-01-23T05:32:43.859Z,0
2019-01-23T05:33:43.881Z,0
2019-01-23T05:34:43.892Z,0
2019-01-23T05:35:44.409Z,0
2019-01-23T05:36:44.162Z,0
2019-01-23T05:37:43.932Z,0
2019-01-23T05:38:43.921Z,0
2019-01-23T05:39:44.988Z,0
2019-01-23T05:40:44.205Z,0
2019-01-23T05:41:43.986Z,0
2019-01-23T05:42:44.244Z,0
2019-01-23T05:43:44.276Z,0
2019-01-23T05:44:44.008Z,0
2019-01-23T05:45:44.037Z,0
2019-01-23T05:46:44.559Z,0
2019-01-23T05:47:44.592Z,0
2019-01-23T05:48:44.341Z,0
2019-01-23T05:49:44.408Z,0
2019-01-23T05:50:43.843Z,0
2019-01-23T05:51:43.841Z,0
2019-01-23T05:52:44.385Z,0
2019-01-23T05:53:44.412Z,0
2019-01-23T05:54:44.667Z,0
2019-01-23T05:55:43.905Z,0
2019-01-23T05:56:44.197Z,0
2019-01-23T05:57:44.453Z,0
2019-01-23T05:58:44.970Z,0
2019-01-23T05:59:44.233Z,0
2019-01-23T06:00:44.751Z,0
2019-01-23T06:01:44.258Z,0
2019-01-23T06:02:44.254Z,0
2019-01-23T06:03:44.791Z,0
2019-01-23T06:04:44.045Z,0
2019-01-23T06:05:44.803Z,0
2019-01-23T06:06:44.306Z,0
2019-01-23T06:07:44.846Z,0
2019-01-23T06:08:45.092Z,0
2019-01-23T06:09:44.347Z,0
2019-01-23T06:10:44.624Z,0
2019-01-23T06:11:44.382Z,0
2019-01-23T06:12:44.651Z,0
2019-01-23T06:13:44.666Z,0
2019-01-23T06:14:44.406Z,0
2019-01-23T06:15:44.681Z,0
2019-01-23T06:16:44.452Z,0
2019-01-23T06:17:44.452Z,0
2019-01-23T06:18:44.710Z,0
2019-01-23T06:19:44.723Z,0
2019-01-23T06:20:45.030Z,0
2019-01-23T06:21:44.504Z,0
2019-01-23T06:22:44.791Z,0
2019-01-23T06:23:44.790Z,0
2019-01-23T06:24:45.068Z,0
2019-01-23T06:25:44.834Z,0
2019-01-23T06:26:44.827Z,0
2019-01-23T06:27:44.602Z,0
2019-01-23T06:28:44.858Z,0
2019-01-23T06:29:44.609Z,0
2019-01-23T06:30:44.390Z,0
2019-01-23T06:31:46.262Z,0
2019-01-23T06:32:44.659Z,0
2019-01-23T06:33:44.668Z,0
2019-01-23T06:34:44.678Z,0
2019-01-23T06:35:45.207Z,0
2019-01-23T06:36:44.978Z,0
2019-01-23T06:37:44.964Z,0
2019-01-23T06:38:44.719Z,0
2019-01-23T06:39:44.747Z,0
2019-01-23T06:40:45.002Z,0
2019-01-23T06:41:44.528Z,0
2019-01-23T06:42:45.304Z,0
2019-01-23T06:43:44.538Z,0
2019-01-23T06:44:44.826Z,0
2019-01-23T06:45:44.822Z,0
2019-01-23T06:46:45.123Z,0
2019-01-23T06:47:45.093Z,0
2019-01-23T06:48:45.388Z,0
2019-01-23T06:49:44.893Z,0
2019-01-23T06:50:44.899Z,0
2019-01-23T06:51:45.165Z,0
2019-01-23T06:52:45.701Z,0
2019-01-23T06:53:45.380Z,0
2019-01-23T06:54:45.705Z,0
2019-01-23T06:55:45.206Z,0
2019-01-23T06:56:45.255Z,0
2019-01-23T06:57:45.254Z,0
2019-01-23T06:58:45.243Z,0
2019-01-23T06:59:45.252Z,0
2019-01-23T07:00:45.018Z,0
2019-01-23T07:01:45.324Z,0
2019-01-23T07:02:45.295Z,0
2019-01-23T07:03:45.307Z,0
2019-01-23T07:04:45.339Z,0
2019-01-23T07:05:45.086Z,0
2019-01-23T07:06:45.622Z,0
2019-01-23T07:07:45.109Z,0
2019-01-23T07:08:45.376Z,0
2019-01-23T07:09:45.384Z,0
2019-01-23T07:10:45.407Z,0
2019-01-23T07:11:45.430Z,0
2019-01-23T07:12:45.183Z,0
2019-01-23T07:13:45.184Z,0
2019-01-23T07:14:45.470Z,0
2019-01-23T07:15:45.478Z,0
2019-01-23T07:16:45.225Z,0
2019-01-23T07:17:45.526Z,0
2019-01-23T07:18:45.952Z,0
2019-01-23T07:19:45.528Z,0
2019-01-23T07:20:45.293Z,0
2019-01-23T07:21:45.830Z,0
2019-01-23T07:22:45.855Z,0
2019-01-23T07:23:45.568Z,0
2019-01-23T07:24:45.325Z,0
2019-01-23T07:25:45.627Z,0
2019-01-23T07:26:45.097Z,0
2019-01-23T07:27:45.648Z,0
2019-01-23T07:28:51.397Z,0
2019-01-23T07:29:45.926Z,0
2019-01-23T07:30:45.952Z,0
2019-01-23T07:31:45.691Z,0
2019-01-23T07:32:45.746Z,0
2019-01-23T07:33:45.712Z,0
2019-01-23T07:34:45.734Z,0
2019-01-23T07:35:45.765Z,0
2019-01-23T07:36:46.304Z,0
2019-01-23T07:37:46.025Z,0
2019-01-23T07:38:46.045Z,5
2019-01-23T07:39:45.828Z,5
2019-01-23T07:40:46.080Z,5
2019-01-23T07:41:46.099Z,5
2019-01-23T07:42:45.569Z,5
2019-01-23T07:43:45.603Z,5
2019-01-23T07:44:45.343Z,5
2019-01-23T07:45:45.860Z,5
2019-01-23T07:46:45.887Z,5
2019-01-23T07:47:45.635Z,5
2019-01-23T07:48:45.401Z,5
2019-01-23T07:49:46.167Z,5
2019-01-23T07:50:45.688Z,5
2019-01-23T07:51:45.464Z,5
2019-01-23T07:52:45.694Z,5
2019-01-23T07:53:45.730Z,5
2019-01-23T07:54:45.996Z,5
2019-01-23T07:55:45.745Z,5
2019-01-23T07:56:46.294Z,5
2019-01-23T07:57:46.029Z,5
2019-01-23T07:58:45.522Z,5
2019-01-23T07:59:46.306Z,5
2019-01-23T08:00:46.618Z,5
2019-01-23T08:01:46.095Z,10
2019-01-23T08:02:46.370Z,10
2019-01-23T08:03:45.885Z,10
2019-01-23T08:04:46.119Z,10
2019-01-23T08:05:45.882Z,10
2019-01-23T08:06:45.895Z,10
2019-01-23T08:07:46.148Z,10
2019-01-23T08:08:46.221Z,10
2019-01-23T08:09:47.267Z,10
2019-01-23T08:10:45.947Z,10
2019-01-23T08:11:45.967Z,10
2019-01-23T08:12:46.012Z,10
2019-01-23T08:13:46.382Z,10
2019-01-23T08:14:46.554Z,10
2019-01-23T08:15:46.025Z,10
2019-01-23T08:16:46.536Z,10
2019-01-23T08:17:46.034Z,10
2019-01-23T08:18:45.794Z,10
2019-01-23T08:19:46.836Z,10
2019-01-23T08:20:46.330Z,10
2019-01-23T08:21:46.335Z,15
2019-01-23T08:22:46.352Z,15
2019-01-23T08:23:46.889Z,15
2019-01-23T08:24:46.402Z,15
2019-01-23T08:25:46.383Z,15
2019-01-23T08:26:46.160Z,15
2019-01-23T08:27:46.691Z,15
2019-01-23T08:28:46.498Z,15
2019-01-23T08:29:46.456Z,15
2019-01-23T08:30:48.637Z,15
2019-01-23T08:31:46.222Z,15
2019-01-23T08:32:46.998Z,15
2019-01-23T08:33:46.262Z,15
2019-01-23T08:34:46.274Z,15
2019-01-23T08:35:46.804Z,15
2019-01-23T08:36:46.275Z,15
2019-01-23T08:37:46.297Z,15
2019-01-23T08:38:46.310Z,15
2019-01-23T08:39:46.583Z,15
2019-01-23T08:40:47.105Z,15
2019-01-23T08:41:46.616Z,15
2019-01-23T08:42:46.871Z,15
2019-01-23T08:43:46.640Z,15
2019-01-23T08:44:47.158Z,15
2019-01-23T08:45:46.680Z,15
2019-01-23T08:46:46.682Z,15
2019-01-23T08:47:46.694Z,15
2019-01-23T08:48:46.443Z,15
2019-01-23T08:49:48.038Z,15
2019-01-23T08:50:46.475Z,15
2019-01-23T08:51:46.494Z,15
2019-01-23T08:52:46.506Z,15
2019-01-23T08:53:46.509Z,15
2019-01-23T08:54:47.038Z,15
2019-01-23T08:55:53.163Z,20
2019-01-23T08:56:47.080Z,15
2019-01-23T08:57:46.292Z,15
2019-01-23T08:58:46.825Z,20
2019-01-23T08:59:46.328Z,20
2019-01-23T09:00:52.680Z,20
2019-01-23T09:01:46.604Z,20
2019-01-23T09:02:47.144Z,20
2019-01-23T09:03:47.173Z,20
2019-01-23T09:04:46.660Z,20
2019-01-23T09:05:46.944Z,20
2019-01-23T09:06:46.932Z,20
2019-01-23T09:07:47.486Z,20
2019-01-23T09:08:46.855Z,20
2019-01-23T09:09:46.719Z,20
2019-01-23T09:10:46.985Z,20
2019-01-23T09:11:47.021Z,20
2019-01-23T09:12:47.305Z,20
2019-01-23T09:13:47.294Z,20
2019-01-23T09:14:46.536Z,20
2019-01-23T09:15:47.331Z,20
2019-01-23T09:16:47.060Z,20
2019-01-23T09:17:46.825Z,20
2019-01-23T09:18:46.838Z,20
2019-01-23T09:19:46.590Z,20
2019-01-23T09:20:47.129Z,20
2019-01-23T09:21:46.884Z,20
2019-01-23T09:22:46.900Z,20
2019-01-23T09:23:46.955Z,20
2019-01-23T09:24:46.971Z,20
2019-01-23T09:25:52.432Z,20
2019-01-23T09:26:46.953Z,20
2019-01-23T09:27:46.956Z,20
2019-01-23T09:28:47.225Z,20
2019-01-23T09:29:46.984Z,20
2019-01-23T09:30:52.524Z,20
2019-01-23T09:31:47.013Z,20
2019-01-23T09:32:47.557Z,25
2019-01-23T09:33:47.032Z,25
2019-01-23T09:34:47.822Z,25
2019-01-23T09:35:47.603Z,25
2019-01-23T09:36:47.316Z,25
2019-01-23T09:37:47.399Z,25
2019-01-23T09:38:47.624Z,25
2019-01-23T09:39:47.369Z,25
2019-01-23T09:40:47.394Z,25
2019-01-23T09:41:47.144Z,25
2019-01-23T09:42:47.671Z,25
2019-01-23T09:43:47.229Z,25
2019-01-23T09:44:46.918Z,25
2019-01-23T09:45:47.471Z,25
2019-01-23T09:46:47.463Z,25
2019-01-23T09:47:47.505Z,20
2019-01-23T09:48:47.225Z,20
2019-01-23T09:49:46.998Z,20
2019-01-23T09:50:48.051Z,20
2019-01-23T09:51:47.778Z,20
2019-01-23T09:52:47.293Z,20
2019-01-23T09:53:47.409Z,20
2019-01-23T09:54:47.836Z,20
2019-01-23T09:55:47.331Z,20
2019-01-23T09:56:47.854Z,20
2019-01-23T09:57:47.624Z,20
2019-01-23T09:58:47.636Z,20
2019-01-23T09:59:47.673Z,25
2019-01-23T10:00:47.439Z,25
2019-01-23T10:01:47.923Z,30
2019-01-23T10:02:47.947Z,25
2019-01-23T10:03:47.689Z,25
2019-01-23T10:04:47.955Z,25
2019-01-23T10:05:47.471Z,25
2019-01-23T10:06:47.466Z,25
2019-01-23T10:07:47.521Z,25
2019-01-23T10:08:47.781Z,25
2019-01-23T10:09:47.260Z,25
2019-01-23T10:10:47.528Z,25
2019-01-23T10:11:47.539Z,25
2019-01-23T10:12:47.296Z,25
2019-01-23T10:13:48.082Z,25
2019-01-23T10:14:47.718Z,25
2019-01-23T10:15:47.858Z,25
2019-01-23T10:16:47.878Z,25
2019-01-23T10:17:47.377Z,25
2019-01-23T10:18:47.905Z,30
2019-01-23T10:19:47.390Z,35
2019-01-23T10:20:47.673Z,35
2019-01-23T10:21:48.449Z,35
2019-01-23T10:22:48.207Z,35
2019-01-23T10:23:47.437Z,35
2019-01-23T10:24:47.723Z,35
2019-01-23T10:25:47.987Z,40
2019-01-23T10:26:47.987Z,40
2019-01-23T10:27:48.270Z,40
2019-01-23T10:28:47.769Z,45
2019-01-23T10:29:48.331Z,45
2019-01-23T10:30:47.529Z,40
2019-01-23T10:31:48.058Z,40
2019-01-23T10:32:47.819Z,35
2019-01-23T10:33:48.094Z,30
2019-01-23T10:34:47.846Z,25
2019-01-23T10:35:48.122Z,25
2019-01-23T10:36:48.157Z,30
2019-01-23T10:37:48.139Z,30
2019-01-23T10:38:48.413Z,30
2019-01-23T10:39:47.918Z,30
2019-01-23T10:40:48.242Z,30
2019-01-23T10:41:47.950Z,30
2019-01-23T10:42:48.229Z,30
2019-01-23T10:43:48.238Z,30
2019-01-23T10:44:48.236Z,30
2019-01-23T10:45:48.511Z,30
2019-01-23T10:46:47.756Z,35
2019-01-23T10:47:48.033Z,35
2019-01-23T10:48:48.291Z,35
2019-01-23T10:49:48.362Z,35
2019-01-23T10:50:48.310Z,40
2019-01-23T10:51:48.078Z,35
2019-01-23T10:52:48.387Z,40
2019-01-23T10:53:48.090Z,35
2019-01-23T10:54:48.383Z,30
2019-01-23T10:55:48.402Z,30
2019-01-23T10:56:48.715Z,30
2019-01-23T10:57:48.674Z,25
2019-01-23T10:58:48.171Z,25
2019-01-23T10:59:48.181Z,20
2019-01-23T11:00:48.461Z,25
2019-01-23T11:01:48.737Z,25
2019-01-23T11:02:49.001Z,25
2019-01-23T11:03:48.496Z,25
2019-01-23T11:04:48.281Z,25
2019-01-23T11:05:48.279Z,25
2019-01-23T11:06:48.801Z,25
2019-01-23T11:07:48.810Z,25
2019-01-23T11:08:48.040Z,25
2019-01-23T11:09:48.057Z,25
2019-01-23T11:10:48.076Z,25
2019-01-23T11:11:48.088Z,25
2019-01-23T11:12:48.350Z,25
2019-01-23T11:13:48.642Z,25
2019-01-23T11:14:48.394Z,25
2019-01-23T11:15:48.390Z,25
2019-01-23T11:16:48.416Z,25
2019-01-23T11:17:48.441Z,25
2019-01-23T11:18:48.978Z,25
2019-01-23T11:19:48.454Z,25
2019-01-23T11:20:48.972Z,25
2019-01-23T11:21:48.477Z,25
2019-01-23T11:22:48.773Z,30
2019-01-23T11:23:48.764Z,30
2019-01-23T11:24:48.778Z,35
2019-01-23T11:25:48.826Z,40
2019-01-23T11:26:49.072Z,40
2019-01-23T11:27:48.827Z,40
2019-01-23T11:28:49.089Z,40
2019-01-23T11:29:49.385Z,40
2019-01-23T11:30:48.860Z,40
2019-01-23T11:31:48.617Z,40
2019-01-23T11:32:49.140Z,40
2019-01-23T11:33:49.421Z,40
2019-01-23T11:34:48.901Z,40
2019-01-23T11:35:48.938Z,35
2019-01-23T11:36:48.422Z,35
2019-01-23T11:37:48.963Z,35
2019-01-23T11:38:48.968Z,35
2019-01-23T11:39:48.970Z,35
2019-01-23T11:40:49.320Z,35
2019-01-23T11:41:49.274Z,35
2019-01-23T11:42:48.771Z,40
2019-01-23T11:43:48.773Z,40
2019-01-23T11:44:49.058Z,40
2019-01-23T11:45:48.811Z,40
2019-01-23T11:46:49.364Z,40
2019-01-23T11:47:49.357Z,35
2019-01-23T11:48:48.593Z,30
2019-01-23T11:49:48.853Z,30
2019-01-23T11:50:48.884Z,30
2019-01-23T11:51:49.400Z,30
2019-01-23T11:52:49.158Z,25
2019-01-23T11:53:49.186Z,30
2019-01-23T11:54:49.181Z,30
2019-01-23T11:55:49.191Z,30
2019-01-23T11:56:49.214Z,30
2019-01-23T11:57:48.977Z,30
2019-01-23T11:58:49.295Z,30
2019-01-23T11:59:49.279Z,30
2019-01-23T12:00:49.343Z,25
2019-01-23T12:01:49.285Z,25
2019-01-23T12:02:48.787Z,30
2019-01-23T12:03:49.569Z,30
2019-01-23T12:04:49.316Z,30
2019-01-23T12:05:48.817Z,30
2019-01-23T12:06:49.095Z,30
2019-01-23T12:07:49.376Z,25
2019-01-23T12:08:48.859Z,25
2019-01-23T12:09:49.125Z,25
2019-01-23T12:10:49.428Z,25
2019-01-23T12:11:49.411Z,25
2019-01-23T12:12:49.168Z,25
2019-01-23T12:13:49.987Z,25
2019-01-23T12:14:49.488Z,25
2019-01-23T12:15:50.455Z,25
2019-01-23T12:16:49.481Z,25
2019-01-23T12:17:49.261Z,25
2019-01-23T12:18:49.516Z,20
2019-01-23T12:19:49.818Z,20
2019-01-23T12:20:49.299Z,20
2019-01-23T12:21:49.290Z,20
2019-01-23T12:22:49.576Z,20
2019-01-23T12:23:49.600Z,20
2019-01-23T12:24:49.603Z,20
2019-01-23T12:25:49.886Z,20
2019-01-23T12:26:49.369Z,20
2019-01-23T12:27:49.906Z,20
2019-01-23T12:28:49.654Z,20
2019-01-23T12:29:50.191Z,20
2019-01-23T12:30:49.740Z,20
2019-01-23T12:31:49.172Z,20
2019-01-23T12:32:49.721Z,25
2019-01-23T12:33:50.303Z,25
2019-01-23T12:34:49.230Z,25
2019-01-23T12:35:49.510Z,25
2019-01-23T12:36:49.776Z,30
2019-01-23T12:37:50.046Z,30
2019-01-23T12:38:50.383Z,30
2019-01-23T12:39:49.548Z,30
2019-01-23T12:40:50.334Z,30
2019-01-23T12:41:50.091Z,30
2019-01-23T12:42:49.874Z,30
2019-01-23T12:43:49.861Z,30
2019-01-23T12:44:49.600Z,30
2019-01-23T12:45:50.203Z,30
2019-01-23T12:46:50.159Z,30
2019-01-23T12:47:49.915Z,30
2019-01-23T12:48:49.932Z,25
2019-01-23T12:49:49.675Z,25
2019-01-23T12:50:49.949Z,25
2019-01-23T12:51:49.452Z,25
2019-01-23T12:52:49.987Z,20
2019-01-23T12:53:49.745Z,20
2019-01-23T12:54:50.259Z,20
2019-01-23T12:55:49.759Z,20
2019-01-23T12:56:49.793Z,20
2019-01-23T12:57:49.789Z,20
2019-01-23T12:58:49.809Z,20
2019-01-23T12:59:50.085Z,25
2019-01-23T13:00:49.842Z,25
2019-01-23T13:01:51.477Z,25
2019-01-23T13:02:50.130Z,25
2019-01-23T13:03:50.127Z,25
2019-01-23T13:04:49.633Z,25
2019-01-23T13:05:50.682Z,25
2019-01-23T13:06:49.904Z,25
2019-01-23T13:07:49.669Z,25
2019-01-23T13:08:50.447Z,25
2019-01-23T13:09:50.473Z,25
2019-01-23T13:10:50.551Z,25
2019-01-23T13:11:49.997Z,25
2019-01-23T13:12:50.004Z,25
2019-01-23T13:13:50.578Z,25
2019-01-23T13:14:50.291Z,30
2019-01-23T13:15:50.304Z,35
2019-01-23T13:16:50.574Z,35
2019-01-23T13:17:50.330Z,30
2019-01-23T13:18:50.143Z,30
2019-01-23T13:19:49.826Z,25
2019-01-23T13:20:50.357Z,25
2019-01-23T13:21:50.111Z,20
2019-01-23T13:22:50.178Z,20
2019-01-23T13:23:50.674Z,20
2019-01-23T13:24:49.937Z,20
2019-01-23T13:25:50.175Z,20
2019-01-23T13:26:50.951Z,20
2019-01-23T13:27:50.454Z,20
2019-01-23T13:28:50.204Z,20
2019-01-23T13:29:50.769Z,20
2019-01-23T13:30:50.243Z,20
2019-01-23T13:31:55.940Z,25
2019-01-23T13:32:50.528Z,25
2019-01-23T13:33:50.799Z,20
2019-01-23T13:34:50.887Z,20
2019-01-23T13:35:50.583Z,20
2019-01-23T13:36:50.863Z,20
2019-01-23T13:37:50.344Z,20
2019-01-23T13:38:50.360Z,20
2019-01-23T13:39:50.663Z,20
2019-01-23T13:40:50.397Z,20
2019-01-23T13:41:50.396Z,20
2019-01-23T13:42:50.923Z,20
2019-01-23T13:43:50.552Z,20
2019-01-23T13:44:50.698Z,20
2019-01-23T13:45:50.519Z,20
2019-01-23T13:46:50.733Z,20
2019-01-23T13:47:50.909Z,20
2019-01-23T13:48:50.796Z,20
2019-01-23T13:49:50.788Z,20
2019-01-23T13:50:50.779Z,20
2019-01-23T13:51:50.788Z,15
2019-01-23T13:52:50.818Z,15
2019-01-23T13:53:50.292Z,15
2019-01-23T13:54:50.367Z,15
2019-01-23T13:55:50.848Z,15
2019-01-23T13:56:50.351Z,15
2019-01-23T13:57:50.612Z,20
2019-01-23T13:58:51.272Z,20
2019-01-23T13:59:50.837Z,20
2019-01-23T14:00:51.193Z,15
2019-01-23T14:01:56.074Z,15
2019-01-23T14:02:50.416Z,15
2019-01-23T14:03:50.959Z,15
2019-01-23T14:04:50.712Z,15
2019-01-23T14:05:50.475Z,15
2019-01-23T14:06:50.738Z,15
2019-01-23T14:07:51.026Z,15
2019-01-23T14:08:51.300Z,15
2019-01-23T14:09:50.792Z,10
2019-01-23T14:10:50.533Z,15
2019-01-23T14:11:51.074Z,15
2019-01-23T14:12:51.084Z,15
2019-01-23T14:13:51.349Z,15
2019-01-23T14:14:50.617Z,15
2019-01-23T14:15:50.851Z,15
2019-01-23T14:16:50.885Z,15
2019-01-23T14:17:51.423Z,15
2019-01-23T14:18:51.435Z,15
2019-01-23T14:19:51.269Z,15
2019-01-23T14:20:50.947Z,15
2019-01-23T14:21:50.951Z,15
2019-01-23T14:22:51.235Z,15
2019-01-23T14:23:51.253Z,15
2019-01-23T14:24:51.251Z,15
2019-01-23T14:25:51.017Z,15
2019-01-23T14:26:51.810Z,15
2019-01-23T14:27:51.551Z,15
2019-01-23T14:28:51.033Z,15
2019-01-23T14:29:51.602Z,15
2019-01-23T14:30:51.334Z,15
2019-01-23T14:31:51.340Z,15
2019-01-23T14:32:50.846Z,10